Latest Weather Observations for Bombala AWS

IDN60801

Issued at 1:03 pm EST Tuesday 30 August 2016 (issued every 30 minutes, with the page automatically refreshed every 10 minutes)

About weather observations | Map of weather stations | Latest weather observations for NSW | Other Formats
Station Details ID: 070328 Name: BOMBALA AWS Lat: -37.00 Lon: 149.23 Height: 760.5 m
Data from the previous 72 hours. | See also: Recent months at Bombala AWS
Date/Time
EST
Temp
°C
App
Temp
°C
Dew
Point
°C
Rel
Hum
%
Delta-T
°C
Wind Press
QNH
hPa
Press
MSL
hPa
Rain since
9am
mm
Dir  Spd
km/h
Gust
km/h
Spd
kts
Gust
kts
30/01:00pm 14.3 8.4 -0.9 35 6.5 NNW 20 28 11 15 1021.4 1022.4 0.0
30/12:30pm 13.5 10.4 3.8 52 4.6 NNW 9 13 5 7 1021.9 1022.9 0.0
30/12:00pm 12.7 9.8 4.4 57 3.9 NNW 9 11 5 6 1022.2 1023.3 0.0
30/11:30am 11.3 9.2 5.8 69 2.7 NW 6 7 3 4 1023.2 1024.3 0.0
30/11:00am 10.7 8.9 5.5 70 2.5 NNW 4 9 2 5 1023.9 1024.9 0.0
30/10:30am 10.2 8.4 5.4 72 2.3 NNW 4 6 2 3 1023.9 1024.9 0.0
30/10:00am 9.3 7.8 6.9 85 1.2 NW 4 7 2 4 1024.2 1025.2 0.0
30/09:30am 8.0 6.8 7.9 99 0.0 NW 4 6 2 3 1024.1 1025.1 0.0
30/09:00am 6.8 4.9 6.8 100 0.0 NW 6 6 3 3 1024.4 1025.5 0.0
30/08:30am 5.7 3.4 5.7 100 0.0 N 7 9 4 5 1024.5 1025.6 0.0
30/08:00am 5.0 2.7 5.0 100 0.0 NW 6 7 3 4 1024.8 1025.9 0.0
30/07:30am 3.7 1.2 3.7 100 0.0 NNW 6 6 3 3 1024.5 1025.6 0.0
30/07:00am 4.4 2.4 4.4 100 0.0 NW 4 6 2 3 1024.2 1025.2 0.0
30/06:30am 3.0 0.4 3.0 100 0.0 NW 6 6 3 3 1024.1 1025.1 0.0
30/06:00am 4.3 2.7 4.3 100 0.0 NW 2 4 1 2 1023.7 1024.8 0.0
30/05:30am 4.0 1.5 4.0 100 0.0 NW 6 7 3 4 1023.5 1024.6 0.0
30/05:00am 3.2 0.4 3.2 100 0.0 NW 7 7 4 4 1023.6 1024.7 0.0
30/04:30am 4.4 2.4 4.4 100 0.0 WNW 4 6 2 3 1023.9 1024.9 0.0
30/04:00am 5.3 3.1 5.3 100 0.0 WNW 6 6 3 3 1023.6 1024.7 0.0
30/03:30am 5.6 3.5 5.6 100 0.0 NW 6 6 3 3 1023.6 1024.7 0.0
30/03:00am 5.2 3.0 5.2 100 0.0 WNW 6 7 3 4 1023.9 1024.9 0.0
30/02:30am 5.4 3.2 5.4 100 0.0 NW 6 7 3 4 1024.0 1025.0 0.0
30/02:00am 6.0 4.7 6.0 100 0.0 NW 2 2 1 1 1024.0 1025.0 0.0
30/01:30am 4.9 3.4 4.9 100 0.0 NNE 2 6 1 3 1024.6 1025.7 0.0
30/01:00am 6.5 5.7 6.5 100 0.0 CALM 0 0 0 0 1024.9 1026.0 0.0
30/12:30am 6.3 5.1 6.3 100 0.0 NE 2 4 1 2 1025.1 1026.2 0.0
30/12:00am 5.9 4.2 5.9 100 0.0 NE 4 6 2 3 1025.4 1026.4 0.0
 
Date/Time
EST
Temp
°C
App
Temp
°C
Dew
Point
°C
Rel
Hum
%
Delta-T
°C
Wind Press
QNH
hPa
Press
MSL
hPa
Rain since
9am
mm
Dir  Spd
km/h
Gust
km/h
Spd
kts
Gust
kts
29/11:30pm 6.6 4.7 6.6 100 0.0 NNE 6 7 3 4 1025.7 1026.8 0.0
29/11:00pm 6.5 5.3 6.5 100 0.0 NNW 2 4 1 2 1025.7 1026.8 0.0
29/10:30pm 7.2 5.2 7.2 100 0.0 NE 7 11 4 6 1025.6 1026.7 0.0
29/10:00pm 7.1 5.1 7.1 100 0.0 ENE 7 11 4 6 1025.4 1026.4 0.0
29/09:30pm 7.7 6.8 7.6 99 0.0 NE 2 7 1 4 1025.7 1026.8 0.0
29/09:00pm 7.3 6.2 6.7 96 0.3 ENE 2 6 1 3 1025.7 1026.8 0.0
29/08:30pm 7.6 5.5 5.6 87 0.9 ENE 6 9 3 5 1025.0 1026.1 0.0
29/08:00pm 8.2 6.3 4.8 79 1.6 ENE 4 7 2 4 1025.3 1026.3 0.0
29/07:30pm 8.4 6.4 4.2 75 1.9 E 4 6 2 3 1024.9 1026.0 0.0
29/07:00pm 9.0 6.6 4.2 72 2.2 ENE 6 9 3 5 1024.6 1025.7 0.0
29/06:30pm 9.0 7.3 4.2 72 2.2 E 2 9 1 5 1024.6 1025.7 0.0
29/06:00pm 10.0 7.7 4.6 69 2.5 NE 6 9 3 5 1024.6 1025.7 0.0
29/05:30pm 11.1 8.2 4.8 65 3.0 ENE 9 17 5 9 1024.5 1025.6 0.0
29/05:00pm 12.3 8.2 4.5 59 3.7 ENE 15 24 8 13 1024.3 1025.3 0.0
29/04:30pm 13.3 10.2 5.5 59 3.8 ENE 11 17 6 9 1024.1 1025.1 0.0
29/04:00pm 13.2 10.3 4.4 55 4.2 ENE 9 15 5 8 1024.0 1025.0 0.0
29/03:30pm 14.0 11.3 3.5 49 5.0 E 7 11 4 6 1023.9 1024.9 0.0
29/03:00pm 14.1 10.7 4.1 51 4.8 NE 11 17 6 9 1024.2 1025.2 0.0
29/02:30pm 14.5 11.3 3.3 47 5.3 NE 9 19 5 10 1024.1 1025.1 0.0
29/02:00pm 14.2 11.2 2.1 44 5.5 NNW 7 19 4 10 1023.9 1024.9 0.0
29/01:30pm 14.3 11.5 2.2 44 5.6 NNE 6 13 3 7 1024.1 1025.1 0.0
29/01:00pm 14.0 11.3 2.6 46 5.2 N 6 11 3 6 1024.5 1025.6 0.0
29/12:30pm 13.7 11.1 3.2 49 4.9 WNW 6 15 3 8 1025.0 1026.1 0.0
29/12:00pm 12.5 9.6 2.4 50 4.6 NW 7 13 4 7 1025.6 1026.7 0.0
29/11:30am 12.9 10.9 2.2 48 4.9 NNE 2 6 1 3 1025.9 1027.0 0.0
29/11:00am 12.2 10.0 3.2 54 4.1 NNW 4 9 2 5 1026.3 1027.4 0.0
29/10:30am 10.7 8.5 3.3 60 3.4 NW 4 7 2 4 1026.5 1027.6 0.0
29/10:00am 9.2 6.1 3.8 69 2.4 N 9 13 5 7 1026.8 1027.9 0.0
29/09:30am 7.9 5.4 3.6 74 1.9 N 6 9 3 5 1026.8 1027.9 0.0
29/09:00am 6.1 2.5 3.1 81 1.3 NNW 11 13 6 7 1026.8 1027.9 0.0
29/08:30am 4.6 1.9 2.6 87 0.9 NNW 6 9 3 5 1026.5 1027.6 0.0
29/08:00am 2.9 0.8 1.7 92 0.5 NNE 2 6 1 3 1026.4 1027.5 0.0
29/07:30am 1.5 -1.0 1.4 99 0.0 NW 4 6 2 3 1026.2 1027.3 0.0
29/07:00am -0.3 -3.7 -0.4 99 0.0 NNW 7 7 4 4 1025.9 1027.0 0.0
29/06:30am -0.8 -4.2 -0.9 99 0.0 N 7 9 4 5 1025.6 1026.7 0.0
29/06:00am 0.2 -3.5 0.1 99 0.0 NNW 9 9 5 5 1025.0 1026.1 0.0
29/05:30am 0.2 -2.9 0.1 99 0.0 N 6 6 3 3 1024.8 1025.9 0.0
29/05:00am -0.3 -3.5 -0.7 97 0.1 NW 6 6 3 3 1024.4 1025.5 0.0
29/04:30am 0.6 -1.7 0.2 97 0.2 NW 2 6 1 3 1024.1 1025.1 0.0
29/04:00am 1.9 -0.7 1.2 95 0.3 WNW 4 6 2 3 1024.0 1025.0 0.0
29/03:30am 1.7 -1.5 0.8 94 0.4 NNW 7 9 4 5 1024.1 1025.1 0.0
29/03:00am 2.0 -1.1 1.3 95 0.3 NNW 7 9 4 5 1023.7 1024.8 0.0
29/02:30am 3.0 0.1 1.4 89 0.6 NW 6 7 3 4 1023.4 1024.5 0.0
29/02:00am 2.5 -0.5 1.0 90 0.6 NW 6 7 3 4 1023.6 1024.7 0.0
29/01:30am 3.2 -0.3 1.3 87 0.8 WNW 9 11 5 6 1023.6 1024.7 0.0
29/01:00am 3.8 0.9 1.2 83 1.1 WNW 6 6 3 3 1023.5 1024.6 0.0
29/12:30am 4.3 1.2 1.3 81 1.2 WNW 7 9 4 5 1023.2 1024.3 0.0
29/12:00am 3.7 -0.5 1.6 86 0.9 NNW 13 15 7 8 1023.0 1024.0 0.0
 
Date/Time
EST
Temp
°C
App
Temp
°C
Dew
Point
°C
Rel
Hum
%
Delta-T
°C
Wind Press
QNH
hPa
Press
MSL
hPa
Rain since
9am
mm
Dir  Spd
km/h
Gust
km/h
Spd
kts
Gust
kts
28/11:30pm 4.3 1.4 1.7 83 1.1 NW 6 7 3 4 1022.9 1023.9 0.0
28/11:00pm 4.3 1.0 2.2 86 0.9 NW 9 9 5 5 1022.8 1023.8 0.0
28/10:30pm 4.2 0.8 1.9 85 1.0 NW 9 11 5 6 1022.7 1023.7 0.0
28/10:00pm 3.9 0.0 0.9 81 1.2 NNW 11 11 6 6 1022.6 1023.6 0.0
28/09:30pm 5.2 2.3 1.3 76 1.6 NNW 6 7 3 4 1022.5 1023.5 0.0
28/09:00pm 6.2 3.2 1.7 73 1.9 NW 7 9 4 5 1022.3 1023.4 0.0
28/08:30pm 5.6 3.1 1.3 74 1.8 NNW 4 4 2 2 1022.1 1023.2 0.0
28/08:00pm 6.6 4.1 1.5 70 2.1 NW 4 6 2 3 1021.9 1022.9 0.0
28/07:30pm 6.8 4.3 1.5 69 2.2 WNW 4 6 2 3 1021.7 1022.7 0.0
28/07:00pm 7.8 4.9 1.4 64 2.7 W 6 7 3 4 1021.5 1022.5 0.0
28/06:30pm 7.8 4.7 1.2 63 2.8 W 7 9 4 5 1021.1 1022.1 0.0
28/06:00pm 9.5 7.0 1.4 57 3.5 W 4 7 2 4 1020.6 1021.6 0.0
28/05:30pm 10.3 7.2 1.4 54 3.9 WSW 7 9 4 5 1020.2 1021.2 0.0
28/05:00pm 10.9 7.0 1.4 52 4.2 WSW 11 13 6 7 1019.9 1020.9 0.0
28/04:30pm 11.9 6.9 1.3 48 4.7 W 17 22 9 12 1019.6 1020.5 0.0
28/04:00pm 12.1 6.6 0.8 46 4.9 W 19 26 10 14 1019.3 1020.3 0.0
28/03:30pm 13.1 6.3 1.1 44 5.3 W 26 32 14 17 1019.2 1020.2 0.0
28/03:00pm 13.0 6.6 1.0 44 5.3 W 24 35 13 19 1019.1 1020.1 0.0
28/02:30pm 13.2 7.2 1.2 44 5.4 WSW 22 37 12 20 1018.9 1019.9 0.0
28/02:00pm 12.8 6.5 1.5 46 5.0 WSW 24 33 13 18 1019.0 1020.0 0.0
28/01:30pm 12.8 5.8 1.8 47 5.0 W 28 41 15 22 1019.0 1020.0 0.0
28/01:00pm 11.6 4.0 0.4 46 4.8 W 30 46 16 25 1019.4 1020.4 0.0
28/12:30pm 10.9 4.1 0.6 49 4.4 W 26 35 14 19 1019.8 1020.7 0.0
28/12:00pm 10.8 3.7 1.4 52 4.1 WNW 28 39 15 21 1019.7 1020.6 0.0
28/11:30am 10.1 3.4 1.7 56 3.7 W 26 35 14 19 1020.1 1021.1 0.0
28/11:00am 9.9 4.0 2.0 58 3.5 WNW 22 35 12 19 1020.4 1021.4 0.0
28/10:30am 8.5 3.2 1.6 62 3.0 NW 19 26 10 14 1020.4 1021.4 0.0
28/10:00am 8.1 2.8 1.7 64 2.7 NW 19 26 10 14 1020.7 1021.7 0.0
28/09:30am 7.2 2.2 1.5 67 2.4 NNW 17 22 9 12 1020.6 1021.6 0.0
28/09:00am 6.3 1.6 1.2 70 2.1 NNW 15 17 8 9 1020.8 1021.8 0.0
28/08:30am 5.6 0.5 1.0 72 1.9 NNW 17 20 9 11 1020.7 1021.7 0.0
28/08:00am 4.6 -1.0 -0.2 71 1.9 NW 19 24 10 13 1020.6 1021.6 0.0
28/07:30am 3.3 -1.2 -0.2 78 1.4 NNW 13 20 7 11 1020.4 1021.4 0.0
28/07:00am 3.5 -1.3 -0.1 77 1.4 NNW 15 20 8 11 1020.2 1021.2 0.0
28/06:30am 2.1 -1.7 -1.0 80 1.2 NNE 9 13 5 7 1019.9 1020.9 0.0
28/06:00am 1.9 -1.6 -1.5 78 1.3 NNE 7 9 4 5 1020.0 1021.0 0.0
28/05:30am 1.2 -2.1 -1.5 82 1.0 NNE 6 9 3 5 1019.6 1020.5 0.0
28/05:00am 0.8 -2.8 -1.9 82 1.0 NNW 7 11 4 6 1019.2 1020.2 0.0
28/04:30am 1.9 -2.0 -1.7 77 1.3 NW 9 13 5 7 1019.1 1020.1 0.0
28/04:00am 1.3 -2.6 -1.8 80 1.1 NNW 9 13 5 7 1018.7 1019.6 0.0
28/03:30am 2.4 -1.9 -1.6 75 1.5 NNW 11 13 6 7 1018.9 1019.9 0.0
28/03:00am 3.2 -0.4 -1.9 69 1.9 N 7 9 4 5 1018.8 1019.8 0.0
28/02:30am 3.6 -0.3 -1.7 68 2.0 NW 9 11 5 6 1018.9 1019.9 0.0
28/02:00am 4.4 -1.4 -1.4 66 2.2 WNW 19 26 10 14 1019.0 1020.0 0.0
28/01:30am 3.5 -2.2 -1.1 72 1.8 NW 19 24 10 13 1019.4 1020.4 0.0
28/01:00am 2.4 -3.9 -1.0 78 1.3 NW 22 28 12 15 1019.0 1020.0 0.0
28/12:30am 4.0 -1.7 -0.6 72 1.8 NW 19 22 10 12 1019.3 1020.3 0.0
28/12:00am 2.5 -2.4 -0.8 79 1.3 NW 15 17 8 9 1019.6 1020.5 0.0
 
Date/Time
EST
Temp
°C
App
Temp
°C
Dew
Point
°C
Rel
Hum
%
Delta-T
°C
Wind Press
QNH
hPa
Press
MSL
hPa
Rain since
9am
mm
Dir  Spd
km/h
Gust
km/h
Spd
kts
Gust
kts
27/11:30pm 2.6 -1.6 -1.0 77 1.4 WNW 11 15 6 8 1019.3 1020.3 0.0
27/11:00pm 3.9 -1.5 -1.1 70 1.9 NW 17 20 9 11 1019.1 1020.1 0.0
27/10:30pm 4.2 -1.5 -1.0 69 2.0 NW 19 22 10 12 1019.3 1020.3 0.0
27/10:00pm 3.2 -1.5 -1.5 71 1.8 NW 13 17 7 9 1019.6 1020.5 0.0
27/09:30pm 5.2 2.0 -0.8 65 2.4 NW 6 11 3 6 1019.7 1020.6 0.0
27/09:00pm 4.1 -0.8 -0.5 72 1.8 WNW 15 19 8 10 1019.6 1020.5 0.0
27/08:30pm 5.0 0.5 -0.4 68 2.1 WNW 13 22 7 12 1019.6 1020.5 0.0
27/08:00pm 5.6 -0.1 0.4 69 2.1 WNW 20 28 11 15 1019.4 1020.4 0.0
27/07:30pm 5.9 1.9 0.3 67 2.3 NW 11 17 6 9 1018.8 1019.8 0.0
27/07:00pm 6.4 2.7 -0.1 63 2.6 WNW 9 13 5 7 1018.6 1019.5 0.0
27/06:30pm 7.0 1.8 0.0 61 2.9 W 17 19 9 10 1018.6 1019.5 0.0
27/06:00pm 6.3 1.8 -0.2 63 2.6 WNW 13 17 7 9 1018.4 1019.3 0.0
27/05:30pm 8.3 3.8 -0.4 54 3.6 WNW 13 17 7 9 1017.9 1018.9 0.0
27/05:00pm 11.1 5.3 -1.3 42 5.1 NW 19 22 10 12 1017.7 1018.7 0.0
27/04:30pm 11.8 6.1 -1.0 41 5.4 WNW 19 24 10 13 1017.8 1018.8 0.0
27/04:00pm 12.8 6.8 -1.9 36 6.1 WNW 20 28 11 15 1017.8 1018.8 0.0
27/03:30pm 13.0 6.9 -2.5 34 6.4 NW 20 26 11 14 1017.5 1018.4 0.0
27/03:00pm 13.0 7.7 -0.6 39 5.8 NW 17 30 9 16 1017.5 1018.4 0.0
27/02:30pm 13.2 9.6 0.6 42 5.5 NW 9 15 5 8 1017.9 1018.9 0.0
27/02:00pm 12.3 8.2 -0.2 42 5.4 NW 11 22 6 12 1018.4 1019.3 0.0
27/01:30pm 12.0 8.8 -0.8 41 5.4 NNW 6 13 3 7 1018.4 1019.3 0.0

Other Formats:

Comma delimited format used in spreadsheet applications
http://www.bom.gov.au/fwo/IDN60801/IDN60801.94929.axf

JavaScript Object Notation format (JSON) in row-major order
http://www.bom.gov.au/fwo/IDN60801/IDN60801.94929.json